Time;durP1;ratioP1;P1;durP2;ratioP2;P2;SDS_P1;SDS_P2;PMS_P1;PMS_P2;Temp;Humidity;BMP_temperature;BMP_pressure;BME280_temperature;BME280_humidity;BME280_pressure;Samples;Min_cycle;Max_cycle;Signal;HPM_P1;HPM_P2
2023/10/23 00:00:38;;;;;;;;;;;;;;;20.50;60.43;98764.69;2078327;28;20035;-68
2023/10/23 00:01:41;;;;;;;;;;;;;;;20.48;60.44;98767.63;2077170;28;19924;-67
2023/10/23 00:02:42;;;;;;;;;;;;;;;20.46;60.44;98772.38;2074387;28;19921;-67
2023/10/23 00:03:43;;;;;;;;;;;;;;;20.47;60.36;98778.59;2084877;28;20328;-67
2023/10/23 00:04:44;;;;;;;;;;;;;;;20.46;60.22;98768.88;2077862;28;19925;-67
2023/10/23 00:05:46;;;;;;;;;;;;;;;20.46;60.39;98768.88;2078619;28;19928;-67
2023/10/23 00:06:46;;;;;;;;;;;;;;;20.46;60.25;98764.31;2078526;28;19928;-68
2023/10/23 00:07:48;;;;;;;;;;;;;;;20.46;60.34;98767.00;2073815;28;21649;-67
2023/10/23 00:08:48;;;;;;;;;;;;;;;20.46;60.20;98768.88;2075392;28;19927;-67
2023/10/23 00:09:50;;;;;;;;;;;;;;;20.47;60.37;98770.50;2079127;28;20546;-67
2023/10/23 00:10:51;;;;;;;;;;;;;;;20.44;60.44;98771.75;2071763;28;19929;-67
2023/10/23 00:11:53;;;;;;;;;;;;;;;20.45;60.43;98775.31;2074009;28;27972;-67
2023/10/23 00:12:53;;;;;;;;;;;;;;;20.44;60.48;98779.03;2070770;28;20296;-67
2023/10/23 00:13:55;;;;;;;;;;;;;;;20.44;60.40;98773.63;2073933;28;20004;-67
2023/10/23 00:14:56;;;;;;;;;;;;;;;20.45;60.45;98772.63;2076357;28;19974;-67
2023/10/23 00:15:57;;;;;;;;;;;;;;;20.44;60.39;98771.75;2080675;28;20056;-67
2023/10/23 00:16:59;;;;;;;;;;;;;;;20.43;60.34;98774.69;2076269;28;19925;-67
2023/10/23 00:18:01;;;;;;;;;;;;;;;20.45;60.15;98778.00;2077004;28;20296;-67
2023/10/23 00:19:01;;;;;;;;;;;;;;;20.44;60.31;98777.16;2077821;28;19943;-66
2023/10/23 00:20:04;;;;;;;;;;;;;;;20.45;60.22;98778.81;2076091;28;20020;-66
2023/10/23 00:21:05;;;;;;;;;;;;;;;20.44;60.39;98776.31;2077667;28;19920;-68
2023/10/23 00:22:06;;;;;;;;;;;;;;;20.43;60.23;98780.06;2074323;28;19925;-67
2023/10/23 00:23:07;;;;;;;;;;;;;;;20.44;60.22;98774.47;2078740;28;19944;-67
2023/10/23 00:24:09;;;;;;;;;;;;;;;20.44;60.19;98777.16;2081423;28;19963;-67
2023/10/23 00:25:09;;;;;;;;;;;;;;;20.45;60.37;98780.69;2082291;28;19929;-67
2023/10/23 00:26:11;;;;;;;;;;;;;;;20.44;60.06;98777.16;2078885;28;20382;-67
2023/10/23 00:27:11;;;;;;;;;;;;;;;20.45;60.40;98772.63;2076286;28;19928;-67
2023/10/23 00:28:13;;;;;;;;;;;;;;;20.43;60.41;98775.50;2079532;28;19978;-67
2023/10/23 00:29:13;;;;;;;;;;;;;;;20.44;60.15;98774.47;2077456;28;20498;-67
2023/10/23 00:30:14;;;;;;;;;;;;;;;20.46;60.17;98779.66;2080007;28;20005;-67
2023/10/23 00:31:15;;;;;;;;;;;;;;;20.44;60.29;98777.16;2082961;28;19931;-67
2023/10/23 00:32:17;;;;;;;;;;;;;;;20.44;60.35;98784.41;2076865;28;19932;-68
2023/10/23 00:33:19;;;;;;;;;;;;;;;20.44;60.05;98777.16;2078289;28;20006;-67
2023/10/23 00:34:20;;;;;;;;;;;;;;;20.44;60.42;98774.47;2084518;28;19928;-67
2023/10/23 00:35:22;;;;;;;;;;;;;;;20.44;60.41;98781.72;2082490;28;19983;-67
2023/10/23 00:36:23;;;;;;;;;;;;;;;20.44;60.29;98787.94;2078991;28;20008;-68
2023/10/23 00:37:24;;;;;;;;;;;;;;;20.45;60.31;98778.81;2080364;28;19932;-67
2023/10/23 00:38:26;;;;;;;;;;;;;;;20.44;60.23;98776.31;2082562;28;19940;-67
2023/10/23 00:39:27;;;;;;;;;;;;;;;20.44;60.26;98776.31;2080003;28;19941;-67
2023/10/23 00:40:29;;;;;;;;;;;;;;;20.44;60.48;98776.31;2080554;28;19925;-67
2023/10/23 00:41:30;;;;;;;;;;;;;;;20.42;60.40;98787.34;2080490;28;19972;-68
2023/10/23 00:42:31;;;;;;;;;;;;;;;20.42;60.32;98781.94;2084977;28;20994;-68
2023/10/23 00:43:34;;;;;;;;;;;;;;;20.42;60.48;98781.94;2079607;28;20012;-67
2023/10/23 00:44:34;;;;;;;;;;;;;;;20.43;60.20;98785.47;2068900;28;19925;-67
2023/10/23 00:45:36;;;;;;;;;;;;;;;20.43;60.08;98785.47;2073777;28;20015;-67
2023/10/23 00:46:36;;;;;;;;;;;;;;;20.44;60.22;98787.94;2075630;28;19943;-67
2023/10/23 00:47:39;;;;;;;;;;;;;;;20.44;60.42;98792.50;2078190;28;20007;-67
2023/10/23 00:48:41;;;;;;;;;;;;;;;20.43;60.41;98786.28;2084112;28;19928;-68
2023/10/23 00:49:43;;;;;;;;;;;;;;;20.43;60.26;98783.59;2078313;28;19938;-67
2023/10/23 00:50:44;;;;;;;;;;;;;;;20.45;60.14;98789.59;2075724;28;19927;-68
2023/10/23 00:51:46;;;;;;;;;;;;;;;20.43;60.16;98783.59;2080110;28;21685;-67
2023/10/23 00:52:47;;;;;;;;;;;;;;;20.44;60.48;98784.41;2081338;28;19935;-68
2023/10/23 00:53:49;;;;;;;;;;;;;;;20.40;60.38;98786.72;2079704;28;19927;-67
2023/10/23 00:54:50;;;;;;;;;;;;;;;20.43;60.51;98785.47;2073749;28;19939;-67
2023/10/23 00:55:52;;;;;;;;;;;;;;;20.41;60.15;98782.16;2080214;28;20568;-67
2023/10/23 00:56:53;;;;;;;;;;;;;;;20.40;60.47;98780.50;2078278;28;19982;-67
2023/10/23 00:57:55;;;;;;;;;;;;;;;20.40;60.51;98780.50;2076522;28;20793;-67
2023/10/23 00:58:57;;;;;;;;;;;;;;;20.39;60.06;98782.34;2076410;28;19940;-67
2023/10/23 00:59:59;;;;;;;;;;;;;;;20.40;60.25;98781.31;2084771;28;19952;-67
2023/10/23 01:01:01;;;;;;;;;;;;;;;20.38;60.34;98783.38;2080842;28;19932;-67
2023/10/23 01:02:03;;;;;;;;;;;;;;;20.37;60.55;98784.44;2076734;28;19921;-67
2023/10/23 01:03:05;;;;;;;;;;;;;;;20.40;60.20;98788.59;2079729;28;19921;-67
2023/10/23 01:04:07;;;;;;;;;;;;;;;20.38;60.23;98788.78;2074005;28;20463;-67
2023/10/23 01:05:07;;;;;;;;;;;;;;;20.39;60.14;98787.72;2079599;28;20011;-67
2023/10/23 01:06:09;;;;;;;;;;;;;;;20.39;60.28;98793.13;2084143;28;19925;-67
2023/10/23 01:07:10;;;;;;;;;;;;;;;20.39;60.20;98789.59;2080348;28;20059;-67
2023/10/23 01:08:11;;;;;;;;;;;;;;;20.39;60.05;98792.28;2083996;28;20320;-67
2023/10/23 01:09:12;;;;;;;;;;;;;;;20.38;60.06;98783.38;2075223;28;19939;-67
2023/10/23 01:10:13;;;;;;;;;;;;;;;20.39;60.28;98790.41;2078334;28;19921;-67
2023/10/23 01:11:14;;;;;;;;;;;;;;;20.38;60.19;98794.16;2083156;28;20402;-67
2023/10/23 01:12:15;;;;;;;;;;;;;;;20.38;60.15;98782.56;2075083;28;20012;-67
2023/10/23 01:13:17;;;;;;;;;;;;;;;20.39;60.27;98789.59;2074769;28;19924;-67
2023/10/23 01:14:18;;;;;;;;;;;;;;;20.37;60.06;98789.84;2070198;28;19928;-67
2023/10/23 01:15:19;;;;;;;;;;;;;;;20.38;60.36;98782.56;2079110;28;19929;-67
2023/10/23 01:16:20;;;;;;;;;;;;;;;20.39;60.37;98784.22;2075909;28;19928;-67
2023/10/23 01:17:21;;;;;;;;;;;;;;;20.39;60.38;98784.22;2069463;28;19935;-67
2023/10/23 01:18:23;;;;;;;;;;;;;;;20.36;60.39;98776.56;2080992;28;20287;-67
2023/10/23 01:19:25;;;;;;;;;;;;;;;20.37;60.40;98778.22;2084609;28;19958;-67
2023/10/23 01:20:26;;;;;;;;;;;;;;;20.38;60.27;98787.97;2072862;28;19925;-68
2023/10/23 01:21:28;;;;;;;;;;;;;;;20.39;60.29;98786.91;2080779;28;19925;-67
2023/10/23 01:22:29;;;;;;;;;;;;;;;20.37;60.33;98783.63;2076505;28;20831;-67
2023/10/23 01:23:33;;;;;;;;;;;;;;;20.38;60.35;98782.56;2074401;28;19964;-67
2023/10/23 01:24:35;;;;;;;;;;;;;;;20.36;60.28;98780.06;2077807;28;19924;-67
2023/10/23 01:25:39;;;;;;;;;;;;;;;20.35;60.09;98778.44;2076847;28;19932;-67
2023/10/23 01:26:39;;;;;;;;;;;;;;;20.36;60.27;98779.25;2079361;28;19939;-67
2023/10/23 01:27:41;;;;;;;;;;;;;;;20.35;60.14;98775.72;2082541;28;19928;-67
2023/10/23 01:28:42;;;;;;;;;;;;;;;20.36;60.29;98779.25;2077022;28;19929;-68
2023/10/23 01:29:43;;;;;;;;;;;;;;;20.35;60.03;98767.66;2074962;28;19971;-67
2023/10/23 01:30:44;;;;;;;;;;;;;;;20.36;60.16;98768.47;2081393;28;19928;-67
2023/10/23 01:31:46;;;;;;;;;;;;;;;20.34;60.26;98771.41;2070222;28;20563;-68
2023/10/23 01:32:46;;;;;;;;;;;;;;;20.34;60.33;98776.78;2076930;28;19924;-67
2023/10/23 01:33:48;;;;;;;;;;;;;;;20.36;60.12;98779.25;2073915;28;20027;-68
2023/10/23 01:34:49;;;;;;;;;;;;;;;20.35;59.99;98773.03;2076013;28;19929;-67
2023/10/23 01:35:50;;;;;;;;;;;;;;;20.36;59.89;98771.16;2079612;28;19928;-67
2023/10/23 01:36:51;;;;;;;;;;;;;;;20.35;59.99;98773.03;2080613;28;20074;-67
2023/10/23 01:37:52;;;;;;;;;;;;;;;20.35;60.12;98781.13;2078120;28;19932;-67
2023/10/23 01:38:54;;;;;;;;;;;;;;;20.35;59.88;98785.69;2079216;28;20513;-67
2023/10/23 01:39:56;;;;;;;;;;;;;;;20.34;60.17;98786.72;2081782;28;20449;-68
2023/10/23 01:40:58;;;;;;;;;;;;;;;20.34;60.21;98778.63;2077278;28;19929;-67
2023/10/23 01:41:59;;;;;;;;;;;;;;;20.34;59.98;98774.09;2080255;28;20008;-67
2023/10/23 01:43:00;;;;;;;;;;;;;;;20.34;59.84;98775.94;2074157;28;19924;-67
2023/10/23 01:44:02;;;;;;;;;;;;;;;20.30;59.80;98776.34;2079050;28;20290;-67
2023/10/23 01:45:03;;;;;;;;;;;;;;;20.31;60.18;98775.34;2080222;28;19959;-67
2023/10/23 01:46:04;;;;;;;;;;;;;;;20.29;60.06;98779.28;2076596;28;20516;-67
2023/10/23 01:47:05;;;;;;;;;;;;;;;20.29;60.11;98774.72;2081004;28;20315;-67
2023/10/23 01:48:07;;;;;;;;;;;;;;;20.29;60.12;98776.59;2079811;28;19979;-67
2023/10/23 01:49:07;;;;;;;;;;;;;;;20.28;60.14;98772.22;2076493;28;19928;-67
2023/10/23 01:50:09;;;;;;;;;;;;;;;20.28;59.82;98775.78;2065572;28;20039;-67
2023/10/23 01:51:09;;;;;;;;;;;;;;;20.28;59.96;98778.47;2071167;28;19921;-67
2023/10/23 01:52:10;;;;;;;;;;;;;;;20.27;59.85;98776.78;2078370;28;19936;-67
2023/10/23 01:53:12;;;;;;;;;;;;;;;20.26;59.90;98777.00;2082024;28;19925;-68
2023/10/23 01:54:12;;;;;;;;;;;;;;;20.26;59.92;98777.84;2084660;28;19920;-67
2023/10/23 01:55:14;;;;;;;;;;;;;;;20.26;60.14;98780.53;2078997;28;19924;-68
2023/10/23 01:56:16;;;;;;;;;;;;;;;20.28;59.64;98769.53;2071964;28;20398;-68
2023/10/23 01:57:17;;;;;;;;;;;;;;;20.29;59.71;98771.19;2069728;28;22018;-67
2023/10/23 01:58:18;;;;;;;;;;;;;;;20.28;59.90;98777.59;2069823;28;19929;-67
2023/10/23 01:59:20;;;;;;;;;;;;;;;20.26;60.05;98775.16;2081869;28;20367;-67
2023/10/23 02:00:20;;;;;;;;;;;;;;;20.26;59.82;98772.44;2077487;28;19931;-67
2023/10/23 02:01:21;;;;;;;;;;;;;;;20.27;59.80;98768.69;2070509;28;20005;-67
2023/10/23 02:02:23;;;;;;;;;;;;;;;20.28;59.88;98767.69;2079229;28;19978;-68
2023/10/23 02:03:23;;;;;;;;;;;;;;;20.30;59.68;98768.28;2085105;28;20383;-67
2023/10/23 02:04:26;;;;;;;;;;;;;;;20.29;59.72;98763.13;2081098;28;19927;-67
2023/10/23 02:05:27;;;;;;;;;;;;;;;20.30;59.65;98770.97;2069976;28;20429;-67
2023/10/23 02:06:29;;;;;;;;;;;;;;;20.28;59.55;98765.00;2077195;28;19924;-67
2023/10/23 02:07:29;;;;;;;;;;;;;;;20.29;59.94;98763.13;2068714;28;20030;-68
2023/10/23 02:08:31;;;;;;;;;;;;;;;20.29;59.63;98763.13;2074673;28;20025;-67
2023/10/23 02:09:32;;;;;;;;;;;;;;;20.29;59.61;98763.94;2080213;28;19921;-67
2023/10/23 02:10:33;;;;;;;;;;;;;;;20.30;59.91;98765.59;2075336;28;20035;-68
2023/10/23 02:11:35;;;;;;;;;;;;;;;20.31;59.52;98769.94;2078141;28;20272;-67
2023/10/23 02:12:37;;;;;;;;;;;;;;;20.30;59.80;98764.75;2079147;28;20004;-67
2023/10/23 02:13:38;;;;;;;;;;;;;;;20.29;59.86;98766.63;2081551;28;19928;-68
2023/10/23 02:14:39;;;;;;;;;;;;;;;20.29;59.95;98769.31;2073144;28;20023;-68
2023/10/23 02:15:40;;;;;;;;;;;;;;;20.29;59.59;98769.31;2061394;28;19929;-67
2023/10/23 02:16:42;;;;;;;;;;;;;;;20.27;59.80;98766.00;2079324;28;20458;-67
2023/10/23 02:17:43;;;;;;;;;;;;;;;20.30;59.71;98767.47;2068671;28;19924;-68
2023/10/23 02:18:45;;;;;;;;;;;;;;;20.28;59.77;98773.06;2072340;28;19920;-67
2023/10/23 02:19:46;;;;;;;;;;;;;;;20.27;59.57;98776.78;2072610;28;20014;-67
2023/10/23 02:20:47;;;;;;;;;;;;;;;20.27;59.68;98776.78;2072079;28;19929;-67
2023/10/23 02:21:49;;;;;;;;;;;;;;;20.27;59.95;98776.78;2079884;28;19928;-68
2023/10/23 02:22:51;;;;;;;;;;;;;;;20.28;59.88;98775.78;2081296;28;20531;-67
2023/10/23 02:23:51;;;;;;;;;;;;;;;20.28;59.64;98770.38;2082458;28;19925;-67
2023/10/23 02:24:53;;;;;;;;;;;;;;;20.27;59.57;98770.56;2069089;28;20494;-67
2023/10/23 02:25:53;;;;;;;;;;;;;;;20.27;59.64;98778.66;2075163;28;20294;-67
2023/10/23 02:26:56;;;;;;;;;;;;;;;20.28;59.87;98778.47;2078624;28;19925;-67
2023/10/23 02:27:57;;;;;;;;;;;;;;;20.26;59.62;98775.16;2072996;28;20153;-67
2023/10/23 02:28:58;;;;;;;;;;;;;;;20.26;59.59;98774.31;2071726;28;20037;-67
2023/10/23 02:29:59;;;;;;;;;;;;;;;20.26;59.76;98777.84;2073581;28;19967;-68
2023/10/23 02:31:03;;;;;;;;;;;;;;;20.28;59.83;98780.31;2074080;28;19920;-68
2023/10/23 02:32:04;;;;;;;;;;;;;;;20.28;59.48;98773.06;2068863;28;19929;-67
2023/10/23 02:33:05;;;;;;;;;;;;;;;20.28;59.64;98777.59;2074544;28;19940;-67
2023/10/23 02:34:07;;;;;;;;;;;;;;;20.27;59.83;98781.34;2075121;28;20390;-67
2023/10/23 02:35:08;;;;;;;;;;;;;;;20.25;59.60;98784.28;2078176;28;19947;-67
2023/10/23 02:36:10;;;;;;;;;;;;;;;20.27;59.50;98779.47;2071200;28;19929;-67
2023/10/23 02:37:10;;;;;;;;;;;;;;;20.27;59.55;98776.78;2076072;28;19925;-67
2023/10/23 02:38:13;;;;;;;;;;;;;;;20.27;59.58;98779.47;2078730;28;19974;-67
2023/10/23 02:39:13;;;;;;;;;;;;;;;20.28;59.73;98780.31;2078414;28;19925;-67
2023/10/23 02:40:15;;;;;;;;;;;;;;;20.27;59.70;98774.09;2071677;28;19931;-67
2023/10/23 02:41:15;;;;;;;;;;;;;;;20.26;59.54;98780.53;2078200;28;19936;-67
2023/10/23 02:42:18;;;;;;;;;;;;;;;20.25;59.57;98773.50;2068713;28;19931;-67
2023/10/23 02:43:19;;;;;;;;;;;;;;;20.26;59.87;98774.31;2076535;28;19924;-67
2023/10/23 02:44:21;;;;;;;;;;;;;;;20.26;59.90;98783.22;2080379;28;19924;-67
2023/10/23 02:45:21;;;;;;;;;;;;;;;20.27;59.54;98781.34;2069064;28;19929;-67
2023/10/23 02:46:23;;;;;;;;;;;;;;;20.26;59.49;98777.84;2067954;28;19920;-67
2023/10/23 02:47:24;;;;;;;;;;;;;;;20.25;59.64;98773.50;2077101;28;19920;-67
2023/10/23 02:48:25;;;;;;;;;;;;;;;20.24;59.94;98779.91;2072342;28;20413;-67
2023/10/23 02:49:26;;;;;;;;;;;;;;;20.25;59.64;98778.88;2072715;28;20030;-68
2023/10/23 02:50:27;;;;;;;;;;;;;;;20.24;59.76;98777.22;2073624;28;19967;-68
2023/10/23 02:51:28;;;;;;;;;;;;;;;20.25;59.57;98778.88;2076343;28;20691;-67
2023/10/23 02:52:29;;;;;;;;;;;;;;;20.26;59.51;98782.41;2068738;28;20290;-67
2023/10/23 02:53:31;;;;;;;;;;;;;;;20.25;59.79;98784.28;2073938;28;19921;-67
2023/10/23 02:54:31;;;;;;;;;;;;;;;20.26;59.81;98785.91;2078382;28;19924;-67
2023/10/23 02:55:33;;;;;;;;;;;;;;;20.26;59.82;98791.31;2073185;28;19935;-67
2023/10/23 02:56:34;;;;;;;;;;;;;;;20.25;59.71;98783.41;2076861;28;20290;-67
2023/10/23 02:57:37;;;;;;;;;;;;;;;20.26;59.63;98782.41;2069869;28;20007;-67
2023/10/23 02:58:37;;;;;;;;;;;;;;;20.25;59.58;98783.41;2073017;28;19928;-67
2023/10/23 02:59:46;;;;;;;;;;;;;;;20.26;59.67;98782.41;2070655;28;19924;-67
2023/10/23 03:00:47;;;;;;;;;;;;;;;20.25;59.74;98784.28;2070240;28;20423;-68
2023/10/23 03:01:48;;;;;;;;;;;;;;;20.25;59.71;98789.66;2080304;28;20016;-67
2023/10/23 03:02:49;;;;;;;;;;;;;;;20.23;59.75;98786.34;2078267;28;22237;-67
2023/10/23 03:03:51;;;;;;;;;;;;;;;20.23;59.56;98786.34;2083688;28;19921;-67
2023/10/23 03:04:51;;;;;;;;;;;;;;;20.25;59.80;98788.81;2076480;28;19928;-67
2023/10/23 03:05:53;;;;;;;;;;;;;;;20.23;59.62;98785.50;2081700;28;20383;-68
2023/10/23 03:06:54;;;;;;;;;;;;;;;20.22;59.75;98778.47;2077725;28;19936;-68
2023/10/23 03:07:55;;;;;;;;;;;;;;;20.22;59.84;98787.34;2081226;28;20474;-67
2023/10/23 03:08:56;;;;;;;;;;;;;;;20.23;59.82;98785.50;2081910;28;19920;-67
2023/10/23 03:09:57;;;;;;;;;;;;;;;20.23;59.65;98786.34;2073233;28;20729;-68
2023/10/23 03:10:58;;;;;;;;;;;;;;;20.22;59.46;98792.75;2077744;28;19924;-67
2023/10/23 03:12:00;;;;;;;;;;;;;;;20.22;59.75;98787.34;2077465;28;19990;-67
2023/10/23 03:13:02;;;;;;;;;;;;;;;20.23;59.56;98790.91;2080576;28;20031;-67
2023/10/23 03:14:04;;;;;;;;;;;;;;;20.23;59.44;98794.41;2080186;28;20042;-67
2023/10/23 03:15:06;;;;;;;;;;;;;;;20.22;59.63;98787.34;2078018;28;20015;-67
2023/10/23 03:16:07;;;;;;;;;;;;;;;20.23;59.41;98791.72;2083281;28;19994;-67
2023/10/23 03:17:08;;;;;;;;;;;;;;;20.21;59.44;98791.09;2078882;28;20039;-67
2023/10/23 03:18:08;;;;;;;;;;;;;;;20.23;59.58;98790.91;2078028;28;19929;-67
2023/10/23 03:19:10;;;;;;;;;;;;;;;20.23;59.58;98793.59;2081092;28;19947;-67
2023/10/23 03:20:11;;;;;;;;;;;;;;;20.22;59.62;98794.63;2074871;28;19932;-67
2023/10/23 03:21:12;;;;;;;;;;;;;;;20.21;59.51;98793.78;2073868;28;19927;-67
2023/10/23 03:22:13;;;;;;;;;;;;;;;20.22;59.55;98794.63;2075081;28;21574;-67
2023/10/23 03:23:14;;;;;;;;;;;;;;;20.21;59.68;98799.19;2070867;28;20027;-67
2023/10/23 03:24:15;;;;;;;;;;;;;;;20.20;59.47;98797.53;2078883;28;19924;-68
2023/10/23 03:25:17;;;;;;;;;;;;;;;20.20;59.44;98799.41;2073764;28;19968;-67
2023/10/23 03:26:17;;;;;;;;;;;;;;;20.20;59.40;98799.41;2075944;28;20422;-67
2023/10/23 03:27:19;;;;;;;;;;;;;;;20.20;59.39;98797.53;2076112;28;19929;-67
2023/10/23 03:28:21;;;;;;;;;;;;;;;20.20;59.71;98802.91;2080679;28;20521;-67
2023/10/23 03:29:21;;;;;;;;;;;;;;;20.20;59.70;98802.09;2075433;28;19982;-68
2023/10/23 03:30:23;;;;;;;;;;;;;;;20.19;59.80;98801.25;2080019;28;19928;-67
2023/10/23 03:31:24;;;;;;;;;;;;;;;20.20;59.45;98802.09;2072959;28;19928;-67
2023/10/23 03:32:25;;;;;;;;;;;;;;;20.20;59.71;98805.63;2079475;28;19935;-68
2023/10/23 03:33:26;;;;;;;;;;;;;;;20.20;59.37;98808.31;2082224;28;19947;-67
2023/10/23 03:34:27;;;;;;;;;;;;;;;20.20;59.31;98805.63;2079166;28;20383;-67
2023/10/23 03:35:29;;;;;;;;;;;;;;;20.19;59.57;98817.41;2075434;28;20397;-67
2023/10/23 03:36:30;;;;;;;;;;;;;;;20.20;59.54;98812.88;2077514;28;19967;-67
2023/10/23 03:37:31;;;;;;;;;;;;;;;20.20;59.45;98819.06;2078109;28;20007;-67
2023/10/23 03:38:32;;;;;;;;;;;;;;;20.19;59.47;98817.41;2081347;28;21391;-67
2023/10/23 03:39:34;;;;;;;;;;;;;;;20.20;59.40;98810.19;2073951;28;20023;-68
2023/10/23 03:40:34;;;;;;;;;;;;;;;20.19;59.53;98809.31;2074533;28;20482;-67
2023/10/23 03:41:36;;;;;;;;;;;;;;;20.17;59.72;98808.72;2077242;28;19997;-67
2023/10/23 03:42:36;;;;;;;;;;;;;;;20.18;59.69;98807.69;2077947;28;20284;-67
2023/10/23 03:43:40;;;;;;;;;;;;;;;20.19;59.55;98811.19;2079895;28;19935;-67
2023/10/23 03:44:41;;;;;;;;;;;;;;;20.16;59.40;98811.63;2076267;28;19925;-67
2023/10/23 03:45:43;;;;;;;;;;;;;;;20.18;59.39;98814.94;2078091;28;19920;-68
2023/10/23 03:46:45;;;;;;;;;;;;;;;20.18;59.31;98820.31;2079332;28;19928;-68
2023/10/23 03:47:46;;;;;;;;;;;;;;;20.17;59.35;98819.50;2073582;28;20322;-67
2023/10/23 03:48:47;;;;;;;;;;;;;;;20.15;59.52;98805.41;2081285;28;19940;-67
2023/10/23 03:49:48;;;;;;;;;;;;;;;20.16;59.60;98807.06;2080697;28;20315;-68
2023/10/23 03:50:49;;;;;;;;;;;;;;;20.16;59.59;98820.53;2076078;28;19968;-67
2023/10/23 03:51:50;;;;;;;;;;;;;;;20.16;59.78;98801.66;2081432;28;19928;-68
2023/10/23 03:52:50;;;;;;;;;;;;;;;20.15;59.24;98799.19;2082044;28;19960;-67
2023/10/23 03:53:52;;;;;;;;;;;;;;;20.16;59.46;98801.66;2078965;28;19971;-67
2023/10/23 03:54:53;;;;;;;;;;;;;;;20.16;59.33;98798.16;2079723;28;19921;-67
2023/10/23 03:55:55;;;;;;;;;;;;;;;20.16;59.39;98806.22;2078771;28;20398;-67
2023/10/23 03:56:55;;;;;;;;;;;;;;;20.16;59.23;98801.66;2073219;28;19924;-68
2023/10/23 03:57:57;;;;;;;;;;;;;;;20.14;59.53;98797.53;2074647;28;20670;-68
2023/10/23 03:59:00;;;;;;;;;;;;;;;20.13;59.58;98787.81;2075952;28;19929;-68
2023/10/23 04:00:02;;;;;;;;;;;;;;;20.14;59.37;98797.53;2076873;28;20335;-66
2023/10/23 04:01:02;;;;;;;;;;;;;;;20.13;59.53;98794.00;2076670;28;22997;-67
2023/10/23 04:02:04;;;;;;;;;;;;;;;20.14;59.38;98795.66;2072625;28;20466;-67
2023/10/23 04:03:05;;;;;;;;;;;;;;;20.14;59.33;98792.97;2076563;28;20307;-67
2023/10/23 04:04:07;;;;;;;;;;;;;;;20.14;59.51;98792.97;2081237;28;20042;-68
2023/10/23 04:05:08;;;;;;;;;;;;;;;20.11;59.67;98796.06;2074815;28;19932;-67
2023/10/23 04:06:09;;;;;;;;;;;;;;;20.13;59.52;98796.69;2076286;28;19935;-67
2023/10/23 04:07:10;;;;;;;;;;;;;;;20.12;59.30;98800.44;2080063;28;19967;-67
2023/10/23 04:08:11;;;;;;;;;;;;;;;20.15;59.23;98804.59;2080633;28;19925;-67
2023/10/23 04:09:12;;;;;;;;;;;;;;;20.14;59.28;98798.34;2077888;28;19964;-67
2023/10/23 04:10:13;;;;;;;;;;;;;;;20.14;59.62;98797.53;2081846;28;20437;-68
2023/10/23 04:11:15;;;;;;;;;;;;;;;20.13;59.22;98791.31;2081066;28;19927;-67
2023/10/23 04:12:16;;;;;;;;;;;;;;;20.13;59.42;98788.63;2076909;28;19921;-67
2023/10/23 04:13:17;;;;;;;;;;;;;;;20.11;59.18;98785.31;2080080;28;20024;-67
2023/10/23 04:14:19;;;;;;;;;;;;;;;20.12;59.61;98781.59;2078684;28;20536;-67
2023/10/23 04:15:21;;;;;;;;;;;;;;;20.12;59.51;98789.69;2075165;28;20534;-67
2023/10/23 04:16:22;;;;;;;;;;;;;;;20.12;59.21;98792.38;2079363;28;19933;-67
2023/10/23 04:17:23;;;;;;;;;;;;;;;20.11;59.40;98788.00;2073826;28;19929;-68
2023/10/23 04:18:24;;;;;;;;;;;;;;;20.12;59.55;98783.47;2074418;28;19955;-67
2023/10/23 04:19:26;;;;;;;;;;;;;;;20.11;59.55;98790.69;2073507;28;19932;-67
2023/10/23 04:20:27;;;;;;;;;;;;;;;20.12;59.16;98784.28;2080044;28;19932;-67
2023/10/23 04:21:28;;;;;;;;;;;;;;;20.10;59.39;98786.34;2078277;28;19931;-68
2023/10/23 04:22:29;;;;;;;;;;;;;;;20.11;59.54;98789.88;2079450;28;19964;-68
2023/10/23 04:23:31;;;;;;;;;;;;;;;20.12;59.46;98792.38;2078462;28;19924;-68
2023/10/23 04:24:31;;;;;;;;;;;;;;;20.10;59.44;98791.75;2076589;28;19920;-68
2023/10/23 04:25:33;;;;;;;;;;;;;;;20.10;59.49;98786.34;2075825;28;19925;-68
2023/10/23 04:26:33;;;;;;;;;;;;;;;20.11;59.14;98782.63;2080256;28;19931;-68
2023/10/23 04:27:35;;;;;;;;;;;;;;;20.10;59.23;98791.75;2075751;28;20403;-67
2023/10/23 04:28:36;;;;;;;;;;;;;;;20.09;59.20;98790.91;2078860;28;19967;-68
2023/10/23 04:29:39;;;;;;;;;;;;;;;20.08;59.21;98785.72;2077564;28;19987;-67
2023/10/23 04:30:40;;;;;;;;;;;;;;;20.10;59.24;98786.34;2080252;28;19925;-67
2023/10/23 04:31:41;;;;;;;;;;;;;;;20.10;59.31;98780.97;2079473;28;20015;-67
2023/10/23 04:32:42;;;;;;;;;;;;;;;20.09;59.30;98782.03;2072169;28;19932;-67
2023/10/23 04:33:42;;;;;;;;;;;;;;;20.08;59.42;98778.47;2078637;28;20303;-67
2023/10/23 04:34:44;;;;;;;;;;;;;;;20.08;59.17;98778.47;2082214;28;19921;-67
2023/10/23 04:35:44;;;;;;;;;;;;;;;20.10;59.23;98778.28;2075685;28;20164;-67
2023/10/23 04:36:46;;;;;;;;;;;;;;;20.09;59.13;98787.41;2080231;28;20007;-67
2023/10/23 04:37:47;;;;;;;;;;;;;;;20.11;59.09;98785.31;2075004;28;19928;-67
2023/10/23 04:38:48;;;;;;;;;;;;;;;20.10;59.15;98780.97;2077738;28;19929;-67
2023/10/23 04:39:49;;;;;;;;;;;;;;;20.09;59.18;98779.31;2079510;28;19940;-67
2023/10/23 04:40:53;;;;;;;;;;;;;;;20.08;59.18;98783.84;2072936;28;20366;-68
2023/10/23 04:41:53;;;;;;;;;;;;;;;20.09;59.14;98784.72;2073833;28;19929;-68
2023/10/23 04:42:54;;;;;;;;;;;;;;;20.10;59.14;98775.59;2069749;28;21037;-67
2023/10/23 04:43:56;;;;;;;;;;;;;;;20.11;59.28;98782.63;2079416;28;19921;-67
2023/10/23 04:44:57;;;;;;;;;;;;;;;20.08;59.39;98769.56;2077542;28;19925;-67
2023/10/23 04:45:59;;;;;;;;;;;;;;;20.09;59.45;98782.03;2079227;28;20346;-67
2023/10/23 04:47:00;;;;;;;;;;;;;;;20.09;59.40;98773.94;2076053;28;19982;-67
2023/10/23 04:48:01;;;;;;;;;;;;;;;20.08;59.29;98774.97;2080292;28;20012;-68
2023/10/23 04:49:02;;;;;;;;;;;;;;;20.07;59.14;98768.75;2079913;28;20367;-67
2023/10/23 04:50:03;;;;;;;;;;;;;;;20.09;59.23;98771.25;2080602;28;19921;-67
2023/10/23 04:51:05;;;;;;;;;;;;;;;20.09;59.25;98765.88;2080313;28;19932;-67
2023/10/23 04:52:06;;;;;;;;;;;;;;;20.06;59.27;98769.81;2080664;28;19920;-67
2023/10/23 04:53:06;;;;;;;;;;;;;;;20.07;59.48;98770.63;2081811;28;20302;-67
2023/10/23 04:54:08;;;;;;;;;;;;;;;20.08;59.06;98774.97;2077780;28;19921;-67
2023/10/23 04:55:08;;;;;;;;;;;;;;;20.06;59.06;98775.19;2071948;28;20630;-67
2023/10/23 04:56:09;;;;;;;;;;;;;;;20.08;59.15;98785.72;2078196;28;19927;-67
2023/10/23 04:57:11;;;;;;;;;;;;;;;20.07;59.27;98781.38;2077108;28;19927;-67
2023/10/23 04:58:11;;;;;;;;;;;;;;;20.07;59.34;98782.22;2073509;28;19921;-67
2023/10/23 04:59:12;;;;;;;;;;;;;;;20.07;59.35;98781.38;2075535;28;20004;-67
2023/10/23 05:00:16;;;;;;;;;;;;;;;20.07;59.17;98787.59;2072855;28;20003;-67
2023/10/23 05:01:16;;;;;;;;;;;;;;;20.06;59.31;98791.34;2073489;28;19924;-67
2023/10/23 05:02:18;;;;;;;;;;;;;;;20.07;59.32;98789.47;2077245;28;19931;-67
2023/10/23 05:03:18;;;;;;;;;;;;;;;20.06;59.35;98793.22;2076819;28;19952;-67
2023/10/23 05:04:20;;;;;;;;;;;;;;;20.06;59.20;98790.53;2076470;28;19924;-67
2023/10/23 05:05:20;;;;;;;;;;;;;;;20.06;58.96;98798.59;2073966;28;19925;-67
2023/10/23 05:06:25;;;;;;;;;;;;;;;20.08;59.34;98796.50;2077764;28;19929;-68
2023/10/23 05:07:25;;;;;;;;;;;;;;;20.06;59.15;98785.97;2076588;28;19927;-68
2023/10/23 05:08:27;;;;;;;;;;;;;;;20.07;59.26;98793.00;2077231;28;20395;-67
2023/10/23 05:09:27;;;;;;;;;;;;;;;20.06;59.00;98791.34;2077947;28;19925;-68
2023/10/23 05:10:29;;;;;;;;;;;;;;;20.06;59.27;98791.34;2073622;28;19975;-67
2023/10/23 05:11:31;;;;;;;;;;;;;;;20.06;59.41;98795.91;2074395;28;20307;-67
2023/10/23 05:12:33;;;;;;;;;;;;;;;20.05;59.07;98794.22;2081359;28;19954;-67
2023/10/23 05:13:33;;;;;;;;;;;;;;;20.05;59.35;98797.75;2080646;28;20169;-67
2023/10/23 05:14:35;;;;;;;;;;;;;;;20.06;59.12;98790.53;2080351;28;19987;-67
2023/10/23 05:15:37;;;;;;;;;;;;;;;20.07;59.32;98798.38;2080183;28;19965;-68
2023/10/23 05:16:39;;;;;;;;;;;;;;;20.08;59.08;98793.81;2080831;28;20016;-68
2023/10/23 05:17:39;;;;;;;;;;;;;;;20.07;58.94;98792.16;2078915;28;19925;-67
2023/10/23 05:18:41;;;;;;;;;;;;;;;20.05;59.06;98789.66;2083596;28;19960;-68
2023/10/23 05:19:41;;;;;;;;;;;;;;;20.06;59.15;98787.81;2077134;28;20299;-67